createdAt,value
2023-03-06T00:00:33.264Z,60.30
2023-03-06T00:02:59.757Z,60.87
2023-03-06T00:05:26.546Z,60.74
2023-03-06T00:07:53.121Z,60.63
2023-03-06T00:10:22.592Z,60.44
2023-03-06T00:12:52.169Z,60.47
2023-03-06T00:15:19.114Z,60.63
2023-03-06T00:17:45.506Z,60.24
2023-03-06T00:20:12.776Z,60.69
2023-03-06T00:22:40.359Z,60.98
2023-03-06T00:25:08.400Z,60.96
2023-03-06T00:27:34.883Z,61.13
2023-03-06T00:30:01.754Z,60.86
2023-03-06T00:32:28.919Z,61.20
2023-03-06T00:34:55.940Z,61.48
2023-03-06T00:37:23.880Z,61.47
2023-03-06T00:39:50.792Z,61.19
2023-03-06T00:42:18.468Z,61.76
2023-03-06T00:44:45.912Z,62.29
2023-03-06T00:47:13.303Z,61.90
2023-03-06T00:49:39.731Z,61.51
2023-03-06T00:52:06.109Z,61.79
2023-03-06T00:54:32.598Z,61.98
2023-03-06T00:56:59.024Z,61.43
2023-03-06T00:59:25.537Z,61.96
2023-03-06T01:01:52.058Z,61.78
2023-03-06T01:04:18.688Z,61.73
2023-03-06T01:06:45.297Z,61.48
2023-03-06T01:09:11.718Z,61.52
2023-03-06T01:11:38.208Z,62.74
2023-03-06T01:14:04.794Z,62.35
2023-03-06T01:16:31.459Z,61.97
2023-03-06T01:18:58.543Z,61.61
2023-03-06T01:21:25.061Z,61.62
2023-03-06T01:23:51.556Z,60.59
2023-03-06T01:26:18.206Z,61.40
2023-03-06T01:28:44.685Z,61.08
2023-03-06T01:31:11.373Z,61.02
2023-03-06T01:33:38.257Z,60.04
2023-03-06T01:36:11.378Z,60.64
2023-03-06T01:38:38.226Z,60.09
2023-03-06T01:41:05.463Z,60.18
2023-03-06T01:43:34.484Z,60.17
2023-03-06T01:46:25.028Z,59.80
2023-03-06T01:48:59.175Z,60.47
2023-03-06T01:51:30.394Z,60.13
2023-03-06T01:54:00.030Z,60.07
2023-03-06T01:56:26.741Z,59.83
2023-03-06T01:58:53.517Z,60.42
2023-03-06T02:01:20.834Z,60.48
2023-03-06T02:03:50.044Z,60.48
2023-03-06T02:06:19.796Z,60.15
2023-03-06T02:08:48.939Z,59.96
2023-03-06T02:11:22.062Z,60.22
2023-03-06T02:13:50.737Z,60.45
2023-03-06T02:16:20.055Z,61.14
2023-03-06T02:18:47.189Z,61.13
2023-03-06T02:21:21.768Z,61.05
2023-03-06T02:24:10.420Z,61.53
2023-03-06T02:26:38.057Z,60.74
2023-03-06T02:29:04.831Z,60.59
2023-03-06T02:31:33.058Z,60.45
2023-03-06T02:34:05.775Z,59.18
2023-03-06T02:36:35.145Z,59.44
2023-03-06T02:39:01.889Z,59.14
2023-03-06T02:41:28.693Z,58.92
2023-03-06T02:43:55.247Z,59.44
2023-03-06T02:46:21.736Z,59.42
2023-03-06T02:48:48.178Z,59.99
2023-03-06T02:51:14.612Z,59.91
2023-03-06T02:53:41.083Z,60.45
2023-03-06T02:56:07.780Z,59.92
2023-03-06T02:58:34.249Z,59.02
2023-03-06T03:01:00.699Z,59.74
2023-03-06T03:03:27.108Z,59.32
2023-03-06T03:05:53.775Z,59.94
2023-03-06T03:08:20.221Z,58.96
2023-03-06T03:10:46.687Z,58.82
2023-03-06T03:13:13.203Z,59.01
2023-03-06T03:15:39.798Z,59.76
2023-03-06T03:18:06.179Z,58.87
2023-03-06T03:20:32.838Z,58.46
2023-03-06T03:22:59.316Z,58.85
2023-03-06T03:25:26.265Z,58.24
2023-03-06T03:27:53.015Z,58.17
2023-03-06T03:30:19.669Z,57.21
2023-03-06T03:32:46.265Z,57.08
2023-03-06T03:35:12.765Z,57.11
2023-03-06T03:37:39.317Z,56.99
2023-03-06T03:40:07.277Z,56.85
2023-03-06T03:42:33.904Z,56.85
2023-03-06T03:45:00.365Z,56.59
2023-03-06T03:47:26.726Z,56.38
2023-03-06T03:49:53.151Z,57.08
2023-03-06T03:52:19.572Z,57.77
2023-03-06T03:54:46.327Z,57.08
2023-03-06T03:57:12.719Z,56.73
2023-03-06T03:59:39.132Z,56.07
2023-03-06T04:02:05.671Z,56.44
2023-03-06T04:04:32.198Z,56.12
2023-03-06T04:06:58.702Z,56.24
2023-03-06T04:09:25.160Z,56.35
2023-03-06T04:11:51.870Z,56.32
2023-03-06T04:14:18.335Z,55.70
2023-03-06T04:16:44.837Z,56.65
2023-03-06T04:19:11.667Z,57.06
2023-03-06T04:21:38.117Z,56.64
2023-03-06T04:24:04.984Z,56.97
2023-03-06T04:26:31.511Z,56.92
2023-03-06T04:28:58.599Z,56.80
2023-03-06T04:31:25.436Z,57.01
2023-03-06T04:33:51.875Z,56.96
2023-03-06T04:36:25.396Z,57.32
2023-03-06T04:38:51.831Z,57.93
2023-03-06T04:41:18.244Z,58.60
2023-03-06T04:43:44.737Z,59.27
2023-03-06T04:46:11.320Z,58.81
2023-03-06T04:48:37.781Z,59.14
2023-03-06T04:51:04.428Z,59.38
2023-03-06T04:53:31.176Z,58.61
2023-03-06T04:55:57.564Z,58.96
2023-03-06T04:58:24.040Z,58.97
2023-03-06T05:00:50.862Z,59.16
2023-03-06T05:03:17.490Z,59.07
2023-03-06T05:05:43.899Z,59.70
2023-03-06T05:08:13.293Z,59.77
2023-03-06T05:10:39.834Z,59.24
2023-03-06T05:13:06.274Z,59.12
2023-03-06T05:15:32.994Z,60.00
2023-03-06T05:17:59.448Z,59.68
2023-03-06T05:20:26.249Z,59.82
2023-03-06T05:22:52.768Z,59.47
2023-03-06T05:25:19.258Z,59.26
2023-03-06T05:27:45.758Z,59.37
2023-03-06T05:30:14.094Z,59.26
2023-03-06T05:32:40.531Z,59.20
2023-03-06T05:35:07.555Z,58.64
2023-03-06T05:37:33.985Z,58.83
2023-03-06T05:40:00.806Z,58.74
2023-03-06T05:42:30.999Z,59.06
2023-03-06T05:44:57.422Z,58.66
2023-03-06T05:47:23.854Z,58.86
2023-03-06T05:49:50.334Z,58.37
2023-03-06T05:52:17.493Z,58.71
2023-03-06T05:54:44.007Z,59.46
2023-03-06T05:57:10.454Z,58.50
2023-03-06T05:59:36.996Z,58.63
2023-03-06T06:02:05.308Z,58.96
2023-03-06T06:04:31.762Z,58.72
2023-03-06T06:07:00.321Z,58.92
2023-03-06T06:09:27.421Z,58.83
2023-03-06T06:11:56.939Z,59.36
2023-03-06T06:14:24.086Z,59.39
2023-03-06T06:16:51.407Z,59.58
2023-03-06T06:19:20.978Z,59.15
2023-03-06T06:21:49.975Z,59.09
2023-03-06T06:24:18.147Z,59.32
2023-03-06T06:26:45.331Z,58.66
2023-03-06T06:29:12.926Z,58.98
2023-03-06T06:31:40.278Z,58.64
2023-03-06T06:34:07.723Z,58.98
2023-03-06T06:36:34.331Z,59.48
2023-03-06T06:39:00.892Z,59.57
2023-03-06T06:41:46.134Z,59.45
2023-03-06T06:44:16.110Z,59.70
2023-03-06T06:49:31.969Z,58.96
2023-03-06T06:51:58.391Z,59.19
2023-03-06T06:54:24.962Z,59.17
2023-03-06T06:56:51.443Z,59.18
2023-03-06T06:59:17.904Z,59.09
2023-03-06T07:01:44.641Z,58.95
2023-03-06T07:04:14.658Z,58.38
2023-03-06T07:06:42.275Z,58.22
2023-03-06T07:09:08.855Z,57.81
2023-03-06T07:11:37.513Z,57.62
2023-03-06T07:14:04.098Z,57.72
2023-03-06T07:16:30.506Z,58.33
2023-03-06T07:18:57.016Z,57.50
2023-03-06T07:21:23.698Z,57.39
2023-03-06T07:23:50.289Z,56.60
2023-03-06T07:26:16.708Z,56.13
2023-03-06T07:28:52.035Z,55.71
2023-03-06T07:31:25.789Z,55.21
2023-03-06T07:33:54.670Z,55.05
2023-03-06T07:36:22.761Z,54.35
2023-03-06T07:38:49.476Z,53.97
2023-03-06T07:41:16.525Z,54.07
2023-03-06T07:43:44.979Z,53.13
2023-03-06T07:46:13.103Z,53.15
2023-03-06T07:48:40.133Z,52.47
2023-03-06T07:51:13.163Z,52.08
2023-03-06T07:53:39.586Z,52.13
2023-03-06T07:56:08.909Z,52.65
2023-03-06T07:58:36.440Z,51.93
2023-03-06T08:01:04.532Z,51.45
2023-03-06T08:03:31.059Z,51.39
2023-03-06T08:06:14.300Z,50.69
2023-03-06T08:08:42.833Z,50.38
2023-03-06T08:11:11.343Z,52.52
2023-03-06T08:13:38.685Z,52.03
2023-03-06T08:16:06.296Z,51.31
2023-03-06T08:18:33.183Z,52.30
2023-03-06T08:21:08.907Z,51.52
2023-03-06T08:23:35.619Z,54.44
2023-03-06T08:26:07.787Z,51.86
2023-03-06T08:28:34.963Z,51.12
2023-03-06T08:31:26.823Z,51.29
2023-03-06T08:33:55.037Z,49.90
2023-03-06T08:36:21.999Z,49.11
2023-03-06T08:38:48.441Z,49.34
2023-03-06T08:41:15.083Z,53.01
2023-03-06T08:43:41.928Z,50.37
2023-03-06T08:46:09.743Z,49.52
2023-03-06T08:48:36.208Z,51.26
2023-03-06T08:51:02.678Z,48.61
2023-03-06T08:53:42.170Z,47.21
2023-03-06T08:56:22.266Z,48.60
2023-03-06T08:58:49.916Z,51.99
2023-03-06T09:01:21.709Z,50.39
2023-03-06T09:03:48.996Z,51.73
2023-03-06T09:06:16.212Z,52.73
2023-03-06T09:08:44.407Z,51.86
2023-03-06T09:11:15.341Z,51.00
2023-03-06T09:13:43.019Z,51.19
2023-03-06T09:16:11.225Z,49.83
2023-03-06T09:18:37.929Z,50.50
2023-03-06T09:21:05.802Z,53.96
2023-03-06T09:23:32.911Z,53.48
2023-03-06T09:26:00.680Z,54.80
2023-03-06T09:28:27.509Z,56.68
2023-03-06T09:30:54.410Z,56.77
2023-03-06T09:33:21.697Z,58.01
2023-03-06T09:35:51.921Z,59.40
2023-03-06T09:38:22.826Z,56.97
2023-03-06T09:40:54.950Z,54.22
2023-03-06T09:43:30.909Z,54.00
2023-03-06T09:45:58.597Z,52.86
2023-03-06T09:48:38.891Z,52.03
2023-03-06T09:51:15.011Z,50.80
2023-03-06T09:53:49.800Z,49.42
2023-03-06T09:56:30.995Z,48.48
2023-03-06T09:59:33.223Z,48.24
2023-03-06T10:02:19.673Z,50.53
2023-03-06T10:04:54.805Z,53.33
2023-03-06T10:07:50.223Z,49.09
2023-03-06T10:10:25.906Z,51.69
2023-03-06T10:13:00.402Z,43.40
2023-03-06T10:15:32.118Z,43.71
2023-03-06T10:17:58.603Z,39.98
2023-03-06T10:20:28.399Z,39.40
2023-03-06T10:23:27.442Z,45.73
2023-03-06T10:26:02.123Z,50.86
2023-03-06T10:28:55.559Z,47.30
2023-03-06T10:31:27.122Z,48.83
2023-03-06T10:33:59.672Z,51.38
2023-03-06T10:36:28.521Z,52.80
2023-03-06T10:38:57.092Z,50.28
2023-03-06T10:41:35.788Z,49.20
2023-03-06T10:44:05.203Z,49.42
2023-03-06T10:46:37.245Z,50.03
2023-03-06T10:49:23.339Z,53.39
2023-03-06T10:51:57.292Z,53.58
2023-03-06T10:54:24.205Z,53.33
2023-03-06T10:56:50.661Z,56.78
2023-03-06T10:59:18.753Z,55.09
2023-03-06T11:01:48.439Z,53.08
2023-03-06T11:04:22.665Z,52.45
2023-03-06T11:07:04.359Z,52.06
2023-03-06T11:09:30.745Z,53.54
2023-03-06T11:12:27.559Z,55.87
2023-03-06T11:15:21.288Z,55.81
2023-03-06T11:17:49.285Z,54.89
2023-03-06T11:20:18.829Z,51.47
2023-03-06T11:23:03.221Z,53.67
2023-03-06T11:25:38.592Z,51.21
2023-03-06T11:28:26.113Z,47.98
2023-03-06T11:30:59.633Z,48.67
2023-03-06T11:33:36.829Z,50.24
2023-03-06T11:36:17.205Z,49.63
2023-03-06T11:38:50.036Z,50.33
2023-03-06T11:41:33.742Z,48.18
2023-03-06T11:44:19.867Z,50.85
2023-03-06T11:47:08.438Z,50.71
2023-03-06T11:50:00.938Z,50.12
2023-03-06T11:52:38.069Z,48.65
2023-03-06T11:55:04.629Z,52.43
2023-03-06T11:57:52.510Z,49.95
2023-03-06T12:00:32.857Z,47.48
2023-03-06T12:03:32.676Z,49.73
2023-03-06T12:06:25.362Z,52.28
2023-03-06T12:09:09.383Z,48.30
2023-03-06T12:11:42.402Z,46.87
2023-03-06T12:14:33.525Z,50.81
2023-03-06T12:17:24.372Z,48.61
2023-03-06T12:20:18.848Z,48.76
2023-03-06T12:23:02.523Z,47.00
2023-03-06T12:25:42.381Z,47.11
2023-03-06T12:28:25.121Z,46.94
2023-03-06T12:31:10.304Z,49.56
2023-03-06T12:33:56.276Z,49.83
2023-03-06T12:36:51.173Z,49.92
2023-03-06T12:39:31.779Z,47.29
2023-03-06T12:42:27.449Z,47.34
2023-03-06T12:45:18.678Z,45.02
2023-03-06T12:47:47.305Z,47.50
2023-03-06T12:50:20.589Z,47.32
2023-03-06T12:52:48.096Z,49.81
2023-03-06T12:55:21.174Z,48.46
2023-03-06T12:57:49.455Z,46.21
2023-03-06T13:00:38.771Z,46.61
2023-03-06T13:03:19.895Z,42.20
2023-03-06T13:06:13.173Z,45.85
2023-03-06T13:09:11.090Z,44.69
2023-03-06T13:11:43.541Z,45.44
2023-03-06T13:14:54.637Z,47.15
2023-03-06T13:17:24.872Z,45.59
2023-03-06T13:20:12.933Z,45.62
2023-03-06T13:22:47.200Z,44.24
2023-03-06T13:25:34.151Z,46.20
2023-03-06T13:28:04.020Z,46.40
2023-03-06T13:30:36.662Z,48.32
2023-03-06T13:33:36.317Z,47.48
2023-03-06T13:36:23.081Z,45.17
2023-03-06T13:38:52.144Z,46.44
2023-03-06T13:41:27.855Z,44.74
2023-03-06T13:44:26.149Z,45.81
2023-03-06T13:47:19.405Z,47.60
2023-03-06T13:49:48.255Z,46.10
2023-03-06T13:52:34.049Z,45.90
2023-03-06T13:55:18.002Z,46.19
2023-03-06T13:57:50.168Z,46.77
2023-03-06T14:00:37.147Z,47.36
2023-03-06T14:03:33.989Z,48.72
2023-03-06T14:06:00.450Z,48.02
2023-03-06T14:08:31.996Z,48.69
2023-03-06T14:11:13.564Z,47.73
2023-03-06T14:13:48.633Z,47.48
2023-03-06T14:16:37.570Z,48.28
2023-03-06T14:19:17.204Z,46.53
2023-03-06T14:21:51.124Z,46.35
2023-03-06T14:24:20.199Z,44.09
2023-03-06T14:26:49.784Z,46.14
2023-03-06T14:29:20.089Z,45.95
2023-03-06T14:31:50.486Z,46.08
2023-03-06T14:34:23.909Z,48.16
2023-03-06T14:36:53.485Z,48.74
2023-03-06T14:39:21.535Z,46.73
2023-03-06T14:41:48.047Z,47.23
2023-03-06T14:44:17.834Z,45.84
2023-03-06T14:46:46.147Z,46.17
2023-03-06T14:49:15.203Z,44.98
2023-03-06T14:51:45.114Z,45.94
2023-03-06T14:54:34.747Z,46.02
2023-03-06T14:57:12.102Z,45.37
2023-03-06T14:59:50.772Z,44.96
2023-03-06T15:02:23.843Z,44.19
2023-03-06T15:04:58.214Z,45.62
2023-03-06T15:07:30.436Z,47.31
2023-03-06T15:09:58.186Z,46.73
2023-03-06T15:12:24.568Z,47.55
2023-03-06T15:15:00.187Z,47.38
2023-03-06T15:17:40.785Z,50.98
2023-03-06T15:20:28.352Z,49.63
2023-03-06T15:22:55.366Z,49.57
2023-03-06T15:25:26.533Z,52.32
2023-03-06T15:28:18.456Z,50.80
2023-03-06T15:31:21.173Z,50.99
2023-03-06T15:34:26.125Z,52.17
2023-03-06T15:37:01.344Z,52.72
2023-03-06T15:39:41.378Z,54.00
2023-03-06T15:42:20.506Z,54.58
2023-03-06T15:44:53.015Z,54.92
2023-03-06T15:47:20.123Z,51.93
2023-03-06T15:49:46.818Z,53.38
2023-03-06T15:52:13.329Z,53.66
2023-03-06T15:54:39.870Z,52.73
2023-03-06T15:57:08.592Z,54.49
2023-03-06T15:59:42.842Z,55.16
2023-03-06T16:02:18.426Z,57.40
2023-03-06T16:04:45.264Z,57.13
2023-03-06T16:07:12.505Z,56.15
2023-03-06T16:09:40.368Z,54.61
2023-03-06T16:12:13.804Z,56.05
2023-03-06T16:14:40.422Z,54.63
2023-03-06T16:17:06.872Z,53.96
2023-03-06T16:19:33.305Z,53.46
2023-03-06T16:21:59.826Z,52.68
2023-03-06T16:24:26.609Z,55.94
2023-03-06T16:26:54.866Z,55.81
2023-03-06T16:29:22.671Z,56.12
2023-03-06T16:31:49.262Z,58.02
2023-03-06T16:34:15.729Z,57.94
2023-03-06T16:36:42.518Z,56.18
2023-03-06T16:39:17.040Z,57.19
2023-03-06T16:41:45.791Z,56.54
2023-03-06T16:44:12.925Z,56.49
2023-03-06T16:46:42.555Z,54.95
2023-03-06T16:49:24.522Z,58.26
2023-03-06T16:51:51.705Z,56.90
2023-03-06T16:54:18.090Z,56.41
2023-03-06T16:56:45.049Z,55.99
2023-03-06T16:59:11.921Z,56.93
2023-03-06T17:01:40.635Z,56.74
2023-03-06T17:04:07.123Z,58.13
2023-03-06T17:06:33.597Z,58.12
2023-03-06T17:09:00.166Z,58.53
2023-03-06T17:11:27.199Z,56.96
2023-03-06T17:13:55.218Z,56.77
2023-03-06T17:16:21.952Z,55.99
2023-03-06T17:18:49.489Z,55.69
2023-03-06T17:21:16.229Z,56.63
2023-03-06T17:23:43.064Z,59.28
2023-03-06T17:26:20.982Z,57.80
2023-03-06T17:28:47.637Z,56.32
2023-03-06T17:31:26.506Z,57.29
2023-03-06T17:33:57.120Z,59.58
2023-03-06T17:36:23.576Z,57.86
2023-03-06T17:38:50.032Z,58.60
2023-03-06T17:41:16.482Z,58.88
2023-03-06T17:43:42.919Z,57.83
2023-03-06T17:46:12.472Z,57.88
2023-03-06T17:48:39.808Z,58.91
2023-03-06T17:51:07.442Z,59.30
2023-03-06T17:53:34.178Z,58.75
2023-03-06T17:56:03.965Z,58.14
2023-03-06T17:58:30.476Z,59.03
2023-03-06T18:00:57.144Z,59.57
2023-03-06T18:03:23.682Z,60.44
2023-03-06T18:06:04.140Z,59.16
2023-03-06T18:08:32.099Z,58.42
2023-03-06T18:11:00.339Z,58.22
2023-03-06T18:13:26.700Z,57.17
2023-03-06T18:15:53.160Z,57.49
2023-03-06T18:18:20.319Z,59.65
2023-03-06T18:20:47.324Z,59.48
2023-03-06T18:23:14.180Z,58.12
2023-03-06T18:25:41.386Z,56.82
2023-03-06T18:28:07.825Z,57.76
2023-03-06T18:30:38.989Z,56.11
2023-03-06T18:33:05.394Z,55.24
2023-03-06T18:35:33.589Z,55.83
2023-03-06T18:38:00.043Z,57.07
2023-03-06T18:40:26.788Z,57.65
2023-03-06T18:42:54.744Z,57.89
2023-03-06T18:45:21.342Z,59.12
2023-03-06T18:47:48.055Z,58.56
2023-03-06T18:50:17.413Z,57.54
2023-03-06T18:52:44.663Z,56.09
2023-03-06T18:55:11.815Z,57.74
2023-03-06T18:57:38.726Z,56.37
2023-03-06T19:00:06.561Z,55.56
2023-03-06T19:02:33.115Z,55.86
2023-03-06T19:04:59.558Z,56.11
2023-03-06T19:07:25.975Z,55.36
2023-03-06T19:09:52.507Z,56.45
2023-03-06T19:12:18.950Z,55.52
2023-03-06T19:14:45.382Z,55.30
2023-03-06T19:17:12.054Z,56.85
2023-03-06T19:19:38.790Z,55.68
2023-03-06T19:22:05.250Z,56.12
2023-03-06T19:24:31.707Z,57.22
2023-03-06T19:26:58.078Z,57.87
2023-03-06T19:29:24.600Z,58.67
2023-03-06T19:31:52.087Z,60.40
2023-03-06T19:34:18.710Z,59.18
2023-03-06T19:36:45.155Z,58.53
2023-03-06T19:39:11.554Z,58.29
2023-03-06T19:41:37.974Z,58.29
2023-03-06T19:44:05.985Z,58.09
2023-03-06T19:46:33.233Z,58.42
2023-03-06T19:49:01.903Z,58.85
2023-03-06T19:51:29.244Z,58.33
2023-03-06T19:53:56.811Z,58.28
2023-03-06T19:56:29.179Z,58.67
2023-03-06T19:58:56.213Z,58.67
2023-03-06T20:01:25.040Z,58.52
2023-03-06T20:03:58.299Z,58.16
2023-03-06T20:06:27.099Z,58.18
2023-03-06T20:08:53.893Z,58.43
2023-03-06T20:11:23.360Z,58.81
2023-03-06T20:13:50.232Z,60.90
2023-03-06T20:16:17.638Z,58.86
2023-03-06T20:18:45.395Z,59.06
2023-03-06T20:21:12.111Z,58.34
2023-03-06T20:23:38.557Z,57.99
2023-03-06T20:26:11.838Z,58.28
2023-03-06T20:28:40.050Z,59.05
2023-03-06T20:31:07.804Z,58.34
2023-03-06T20:33:34.440Z,57.92
2023-03-06T20:36:01.088Z,58.48
2023-03-06T20:38:27.600Z,59.34
2023-03-06T20:40:56.050Z,58.51
2023-03-06T20:43:23.417Z,58.79
2023-03-06T20:45:57.872Z,57.90
2023-03-06T20:48:24.421Z,57.65
2023-03-06T20:51:06.371Z,57.12
2023-03-06T20:53:35.021Z,57.03
2023-03-06T20:56:01.446Z,56.91
2023-03-06T20:58:30.096Z,56.35
2023-03-06T21:00:57.092Z,56.01
2023-03-06T21:03:24.165Z,56.99
2023-03-06T21:05:50.883Z,57.26
2023-03-06T21:08:17.330Z,56.95
2023-03-06T21:10:47.073Z,56.34
2023-03-06T21:13:14.582Z,56.01
2023-03-06T21:15:42.532Z,55.51
2023-03-06T21:18:09.819Z,55.70
2023-03-06T21:20:40.409Z,55.85
2023-03-06T21:23:07.627Z,55.46
2023-03-06T21:25:34.370Z,56.18
2023-03-06T21:28:01.093Z,56.61
2023-03-06T21:30:29.307Z,56.06
2023-03-06T21:32:56.053Z,57.20
2023-03-06T21:35:22.553Z,56.06
2023-03-06T21:37:48.970Z,55.74
2023-03-06T21:40:15.681Z,55.14
2023-03-06T21:42:42.205Z,55.45
2023-03-06T21:45:09.177Z,56.15
2023-03-06T21:47:40.723Z,56.13
2023-03-06T21:50:09.963Z,55.64
2023-03-06T21:52:37.017Z,57.54
2023-03-06T21:55:03.873Z,56.30
2023-03-06T21:57:30.692Z,56.14
2023-03-06T21:59:57.138Z,55.64
2023-03-06T22:02:24.123Z,56.01
2023-03-06T22:04:52.533Z,56.21
2023-03-06T22:07:20.057Z,58.46
2023-03-06T22:09:46.608Z,58.44
2023-03-06T22:12:13.053Z,58.39
2023-03-06T22:14:39.605Z,58.19
2023-03-06T22:17:06.124Z,57.75
2023-03-06T22:19:32.616Z,58.16
2023-03-06T22:21:59.078Z,57.51
2023-03-06T22:24:25.521Z,56.49
2023-03-06T22:26:52.104Z,58.80
2023-03-06T22:29:18.539Z,59.53
2023-03-06T22:31:45.072Z,57.21
2023-03-06T22:34:11.539Z,57.74
2023-03-06T22:36:37.929Z,57.72
2023-03-06T22:39:04.489Z,58.54
2023-03-06T22:41:30.966Z,57.36
2023-03-06T22:43:59.338Z,58.56
2023-03-06T22:46:26.700Z,59.45
2023-03-06T22:48:56.075Z,58.65
2023-03-06T22:51:22.616Z,59.31
2023-03-06T22:53:49.438Z,58.41
2023-03-06T22:56:18.390Z,59.79
2023-03-06T22:58:45.104Z,57.75
2023-03-06T23:01:13.188Z,56.66
2023-03-06T23:03:42.186Z,57.68
2023-03-06T23:06:11.810Z,58.08
2023-03-06T23:08:38.933Z,57.59
2023-03-06T23:11:16.944Z,57.33
2023-03-06T23:13:43.436Z,59.36
2023-03-06T23:16:10.073Z,57.32
2023-03-06T23:18:37.598Z,55.94
2023-03-06T23:21:14.115Z,55.23
2023-03-06T23:23:40.762Z,55.81
2023-03-06T23:26:08.497Z,55.30
2023-03-06T23:28:35.145Z,54.59
2023-03-06T23:31:14.726Z,55.35
2023-03-06T23:33:41.647Z,57.69
2023-03-06T23:36:11.089Z,55.75
2023-03-06T23:38:37.915Z,55.56
2023-03-06T23:41:05.936Z,55.96
2023-03-06T23:43:32.869Z,56.11
2023-03-06T23:45:59.953Z,57.40
2023-03-06T23:48:29.136Z,57.60
2023-03-06T23:50:56.341Z,57.82
2023-03-06T23:53:23.914Z,56.92
2023-03-06T23:55:51.155Z,58.44
2023-03-06T23:58:19.133Z,57.79
